Mentor, MN (56736)

7:57 PM CDT on March 27, 2015 (GMT -0500)
Rural Gentilly | | Change Station
CLOSE
Current Station
Personal Weather Station
Location: Red Lake Falls, MN
Elevation: 1014 ft
Nearby Weather Stations

Elev 1014 ft 47.82 °N, 96.37 °W | Updated 14 minutes ago

Overcast
Overcast
29.8 °F
Feels Like 30 °F
N
0.0
Wind Variable Wind from South

Today
High -- | Low -- °F
--% Chance of Precip.
Yesterday
High -- | Low -- °F
Precip. -- in
7:13 AM 7:47 PM
First Quarter, 57% visible
Pressure 30.09 in
Visibility 10.0 miles
Clouds Overcast 6000 ft
Windchill 30 °F
Dew Point 18 °F
Humidity 62%
Rainfall 0.00 in
Snow Depth Not available.
UV 0 out of 12
Pollen .40 out of 12
Air Quality Not available.
Flu Activity Not available.
METAR KFSE 280035Z AUTO 19005KT 10SM OVC060 M02/M13 A3009 RMK AO2

More Conditions Fewer Conditions

Pressure 30.09 in
Visibility 10.0 miles
Clouds Overcast 6000 ft
Windchill 30 °F
Dew Point 18 °F
Humidity 62%
Rainfall 0.00 in
Snow Depth Not available.
UV 0 out of 12
Pollen .40 out of 12
Air Quality Not available.
Flu Activity Not available.
METAR KFSE 280035Z AUTO 19005KT 10SM OVC060 M02/M13 A3009 RMK AO2

More Conditions Fewer Conditions

10-Day Weather Forecast

Almanac

Astronomy

Mar. 27, 2015 Rise Set
Actual Time
Civil Twilight
Nautical Twilight
Astronomical Twilight
Moon
Length of Visible Light
Length of Day
Tomorrow will be .
, % of the Moon is Illuminated

Today's Extremes

State Highs State Lows

Community

WunderPhotos

Upload Photos

1,808,894 photos uploaded!

WunderBlogs® & News

Nearby

Air Quality

  Air Quality AQ Index Pollutant
Not available.

Snow Depth

Station Depth Elevation

Earthquake Activity

City Distance Mag. Time & Date
Minimum magnitude displayed is 2.5.

Coastal Water Temperatures

Place Temperature

Stations

Nearby Weather Stations

Station Location Temp. Windchill Dew Point Humidity Wind Precip. Elev Updated Type